createdAt,value
2023-06-08T00:02:08.637Z,10.55
2023-06-08T00:04:35.466Z,11.24
2023-06-08T00:07:04.717Z,10.43
2023-06-08T00:09:31.549Z,10.50
2023-06-08T00:11:59.299Z,10.71
2023-06-08T00:14:26.311Z,10.70
2023-06-08T00:16:53.961Z,10.98
2023-06-08T00:19:20.764Z,10.77
2023-06-08T00:21:49.594Z,10.96
2023-06-08T00:24:20.273Z,10.58
2023-06-08T00:26:46.973Z,10.59
2023-06-08T00:29:13.753Z,10.64
2023-06-08T00:31:40.458Z,10.44
2023-06-08T00:34:07.259Z,10.80
2023-06-08T00:36:34.038Z,10.62
2023-06-08T00:39:00.879Z,10.54
2023-06-08T00:41:27.655Z,11.10
2023-06-08T00:43:54.284Z,10.83
2023-06-08T00:46:21.189Z,10.73
2023-06-08T00:48:47.982Z,10.55
2023-06-08T00:51:14.795Z,11.36
2023-06-08T00:53:42.447Z,10.88
2023-06-08T00:56:09.429Z,10.61
2023-06-08T00:58:38.470Z,11.00
2023-06-08T01:01:05.979Z,11.47
2023-06-08T01:03:39.456Z,10.70
2023-06-08T01:06:09.191Z,10.96
2023-06-08T01:08:58.475Z,10.69
2023-06-08T01:11:43.914Z,10.79
2023-06-08T01:14:29.442Z,11.04
2023-06-08T01:17:04.340Z,11.14
2023-06-08T01:20:10.103Z,11.27
2023-06-08T01:22:48.877Z,10.84
2023-06-08T01:25:16.407Z,10.94
2023-06-08T01:27:43.064Z,11.22
2023-06-08T01:30:09.981Z,11.04
2023-06-08T01:32:42.518Z,11.53
2023-06-08T01:35:09.397Z,11.54
2023-06-08T01:37:53.680Z,11.51
2023-06-08T01:40:37.412Z,11.35
2023-06-08T01:43:10.744Z,11.65
2023-06-08T01:45:44.957Z,11.45
2023-06-08T01:48:13.185Z,11.00
2023-06-08T01:50:41.272Z,11.29
2023-06-08T01:53:08.386Z,11.26
2023-06-08T01:55:35.088Z,11.31
2023-06-08T01:58:01.715Z,11.26
2023-06-08T02:00:28.406Z,11.25
2023-06-08T02:02:55.301Z,11.55
2023-06-08T02:05:22.384Z,12.01
2023-06-08T02:07:49.022Z,11.81
2023-06-08T02:10:15.812Z,11.76
2023-06-08T02:12:42.519Z,11.87
2023-06-08T02:15:09.899Z,11.77
2023-06-08T02:17:37.498Z,12.30
2023-06-08T02:20:08.201Z,12.16
2023-06-08T02:22:37.147Z,11.90
2023-06-08T02:25:05.370Z,11.89
2023-06-08T02:27:37.057Z,11.94
2023-06-08T02:30:10.344Z,12.41
2023-06-08T02:32:38.252Z,12.64
2023-06-08T02:35:06.120Z,12.44
2023-06-08T02:37:35.141Z,12.45
2023-06-08T02:40:02.298Z,12.47
2023-06-08T02:42:28.977Z,12.60
2023-06-08T02:44:56.182Z,13.07
2023-06-08T02:47:22.908Z,13.61
2023-06-08T02:49:49.613Z,13.05
2023-06-08T02:52:16.277Z,13.72
2023-06-08T02:54:42.896Z,13.79
2023-06-08T02:57:09.538Z,14.06
2023-06-08T02:59:37.648Z,13.56
2023-06-08T03:02:05.103Z,14.08
2023-06-08T03:04:31.969Z,14.12
2023-06-08T03:06:58.693Z,14.01
2023-06-08T03:09:29.549Z,13.90
2023-06-08T03:11:57.488Z,13.97
2023-06-08T03:14:29.959Z,15.04
2023-06-08T03:17:04.517Z,14.65
2023-06-08T03:19:32.009Z,14.71
2023-06-08T03:22:05.328Z,14.99
2023-06-08T03:24:33.928Z,14.74
2023-06-08T03:27:01.701Z,15.39
2023-06-08T03:29:29.348Z,15.34
2023-06-08T03:31:56.945Z,15.63
2023-06-08T03:34:26.766Z,15.45
2023-06-08T03:36:55.327Z,15.79
2023-06-08T03:39:23.045Z,15.60
2023-06-08T03:41:50.106Z,15.46
2023-06-08T03:44:17.097Z,15.68
2023-06-08T03:46:43.885Z,15.74
2023-06-08T03:49:10.585Z,15.71
2023-06-08T03:51:38.368Z,15.81
2023-06-08T03:54:05.732Z,16.03
2023-06-08T03:56:32.537Z,16.06
2023-06-08T03:58:59.792Z,16.37
2023-06-08T04:01:28.247Z,16.34
2023-06-08T04:03:55.055Z,17.41
2023-06-08T04:06:21.986Z,16.82
2023-06-08T04:08:48.717Z,17.37
2023-06-08T04:11:15.482Z,17.45
2023-06-08T04:13:42.500Z,17.96
2023-06-08T04:16:11.183Z,17.73
2023-06-08T04:18:42.482Z,18.35
2023-06-08T04:21:09.798Z,17.94
2023-06-08T04:23:37.648Z,17.93
2023-06-08T04:26:07.585Z,18.07
2023-06-08T04:28:35.135Z,18.77
2023-06-08T04:31:02.382Z,17.78
2023-06-08T04:33:29.112Z,18.13
2023-06-08T04:35:57.700Z,18.22
2023-06-08T04:38:24.532Z,18.64
2023-06-08T04:40:55.782Z,19.22
2023-06-08T04:43:23.521Z,18.88
2023-06-08T04:46:00.754Z,19.42
2023-06-08T04:48:29.383Z,19.47
2023-06-08T04:51:01.087Z,20.15
2023-06-08T04:53:28.672Z,20.28
2023-06-08T04:55:58.744Z,19.79
2023-06-08T04:58:26.703Z,19.48
2023-06-08T05:00:54.070Z,20.19
2023-06-08T05:03:21.706Z,19.66
2023-06-08T05:05:49.060Z,18.98
2023-06-08T05:08:16.325Z,19.66
2023-06-08T05:10:43.416Z,19.67
2023-06-08T05:13:10.129Z,19.17
2023-06-08T05:15:36.783Z,19.02
2023-06-08T05:18:04.537Z,18.61
2023-06-08T05:20:31.421Z,18.50
2023-06-08T05:22:59.654Z,18.00
2023-06-08T05:25:32.868Z,17.59
2023-06-08T05:27:59.509Z,17.13
2023-06-08T05:30:26.949Z,18.19
2023-06-08T05:32:53.688Z,17.05
2023-06-08T05:35:20.721Z,17.07
2023-06-08T05:37:47.411Z,17.27
2023-06-08T05:40:14.469Z,16.86
2023-06-08T05:42:41.165Z,17.47
2023-06-08T05:45:08.358Z,16.60
2023-06-08T05:47:35.487Z,16.70
2023-06-08T05:50:02.873Z,16.42
2023-06-08T05:52:31.857Z,16.07
2023-06-08T05:54:59.673Z,15.52
2023-06-08T05:57:26.422Z,16.34
2023-06-08T05:59:53.502Z,15.92
2023-06-08T06:02:20.256Z,16.29
2023-06-08T06:04:47.230Z,16.07
2023-06-08T06:07:14.080Z,15.97
2023-06-08T06:09:40.686Z,16.11
2023-06-08T06:12:08.838Z,15.60
2023-06-08T06:14:40.707Z,15.56
2023-06-08T06:17:09.072Z,15.79
2023-06-08T06:19:39.761Z,16.15
2023-06-08T06:22:08.102Z,15.49
2023-06-08T06:24:34.919Z,15.62
2023-06-08T06:27:02.319Z,15.03
2023-06-08T06:29:29.034Z,14.50
2023-06-08T06:31:56.097Z,14.78
2023-06-08T06:34:22.901Z,14.45
2023-06-08T06:36:49.584Z,14.40
2023-06-08T06:39:16.407Z,14.33
2023-06-08T06:41:43.121Z,14.45
2023-06-08T06:44:09.969Z,14.09
2023-06-08T06:46:37.232Z,14.02
2023-06-08T06:49:03.924Z,14.11
2023-06-08T06:51:31.068Z,14.23
2023-06-08T06:53:57.772Z,14.38
2023-06-08T06:56:24.448Z,13.92
2023-06-08T06:58:53.776Z,14.05
2023-06-08T07:01:20.756Z,14.00
2023-06-08T07:03:47.803Z,13.94
2023-06-08T07:06:15.108Z,13.93
2023-06-08T07:08:43.173Z,13.43
2023-06-08T07:11:10.274Z,13.51
2023-06-08T07:13:36.917Z,13.99
2023-06-08T07:16:04.793Z,13.76
2023-06-08T07:18:32.096Z,14.23
2023-06-08T07:20:58.931Z,14.00
2023-06-08T07:23:43.563Z,13.70
2023-06-08T07:26:27.345Z,13.18
2023-06-08T07:28:57.837Z,13.49
2023-06-08T07:31:24.857Z,12.63
2023-06-08T07:33:52.357Z,12.99
2023-06-08T07:36:19.318Z,12.76
2023-06-08T07:38:46.037Z,12.57
2023-06-08T07:41:12.770Z,13.08
2023-06-08T07:43:41.084Z,12.46
2023-06-08T07:46:07.748Z,12.42
2023-06-08T07:48:34.444Z,12.33
2023-06-08T07:51:01.226Z,12.20
2023-06-08T07:53:36.086Z,12.81
2023-06-08T07:56:03.928Z,11.78
2023-06-08T07:58:32.481Z,12.18
2023-06-08T08:01:00.167Z,12.16
2023-06-08T08:03:27.409Z,11.69
2023-06-08T08:05:54.293Z,12.02
2023-06-08T08:08:21.270Z,11.65
2023-06-08T08:10:48.470Z,10.93
2023-06-08T08:13:15.119Z,11.69
2023-06-08T08:15:41.850Z,12.23
2023-06-08T08:18:08.681Z,12.11
2023-06-08T08:20:35.602Z,11.69
2023-06-08T08:23:02.292Z,11.61
2023-06-08T08:25:28.935Z,11.56
2023-06-08T08:27:55.622Z,11.55
2023-06-08T08:30:22.892Z,11.56
2023-06-08T08:32:49.665Z,11.75
2023-06-08T08:35:16.882Z,15.72
2023-06-08T08:37:43.565Z,11.94
2023-06-08T08:40:11.130Z,11.67
2023-06-08T08:42:45.126Z,12.03
2023-06-08T08:45:14.554Z,12.01
2023-06-08T08:47:42.874Z,12.25
2023-06-08T08:50:17.917Z,12.53
2023-06-08T08:52:49.375Z,12.06
2023-06-08T08:55:33.314Z,12.17
2023-06-08T08:58:02.981Z,12.08
2023-06-08T09:00:32.445Z,12.27
2023-06-08T09:03:00.186Z,12.12
2023-06-08T09:05:27.143Z,12.31
2023-06-08T09:07:57.350Z,11.34
2023-06-08T09:10:26.519Z,11.60
2023-06-08T09:12:58.213Z,11.53
2023-06-08T09:15:34.827Z,11.43
2023-06-08T09:18:14.728Z,11.21
2023-06-08T09:20:41.474Z,11.30
2023-06-08T09:23:24.316Z,12.90
2023-06-08T09:25:52.286Z,11.26
2023-06-08T09:28:27.015Z,11.26
2023-06-08T09:30:56.840Z,11.53
2023-06-08T09:33:34.504Z,11.68
2023-06-08T09:36:02.721Z,11.45
2023-06-08T09:38:31.067Z,11.79
2023-06-08T09:41:18.589Z,11.78
2023-06-08T09:43:47.146Z,12.08
2023-06-08T09:46:32.498Z,11.46
2023-06-08T09:48:59.938Z,11.58
2023-06-08T09:51:26.624Z,11.25
2023-06-08T09:53:57.968Z,11.55
2023-06-08T09:56:27.140Z,12.53
2023-06-08T09:58:59.711Z,19.41
2023-06-08T10:01:41.973Z,11.85
2023-06-08T10:04:33.506Z,11.52
2023-06-08T10:07:07.573Z,16.02
2023-06-08T10:09:40.628Z,12.33
2023-06-08T10:12:08.883Z,11.37
2023-06-08T10:14:37.043Z,10.82
2023-06-08T10:17:04.508Z,10.57
2023-06-08T10:19:35.967Z,10.59
2023-06-08T10:22:03.857Z,11.70
2023-06-08T10:24:32.106Z,14.27
2023-06-08T10:27:19.300Z,13.08
2023-06-08T10:29:59.405Z,14.48
2023-06-08T10:32:32.780Z,10.42
2023-06-08T10:35:02.906Z,9.88
2023-06-08T10:37:34.740Z,9.93
2023-06-08T10:40:10.199Z,9.83
2023-06-08T10:42:37.685Z,9.48
2023-06-08T10:45:06.532Z,9.66
2023-06-08T10:47:37.893Z,9.46
2023-06-08T10:50:07.599Z,9.33
2023-06-08T10:53:01.384Z,8.97
2023-06-08T10:55:29.295Z,8.73
2023-06-08T10:57:56.367Z,9.00
2023-06-08T11:00:46.075Z,8.82
2023-06-08T11:03:18.981Z,13.27
2023-06-08T11:05:51.320Z,9.20
2023-06-08T11:08:19.105Z,8.17
2023-06-08T11:10:52.738Z,8.09
2023-06-08T11:13:20.000Z,8.43
2023-06-08T11:15:48.522Z,13.48
2023-06-08T11:18:20.206Z,8.83
2023-06-08T11:20:47.264Z,14.81
2023-06-08T11:23:15.308Z,8.37
2023-06-08T11:25:45.876Z,8.24
2023-06-08T11:28:12.805Z,8.54
2023-06-08T11:30:39.507Z,11.11
2023-06-08T11:33:08.289Z,8.83
2023-06-08T11:35:36.217Z,8.10
2023-06-08T11:38:04.176Z,7.65
2023-06-08T11:40:32.530Z,7.58
2023-06-08T11:42:59.675Z,7.74
2023-06-08T11:45:27.145Z,7.52
2023-06-08T11:48:14.706Z,7.83
2023-06-08T11:50:49.889Z,7.50
2023-06-08T11:53:24.751Z,7.35
2023-06-08T11:55:54.320Z,6.96
2023-06-08T11:58:33.722Z,7.23
2023-06-08T12:01:19.868Z,6.82
2023-06-08T12:03:49.047Z,7.43
2023-06-08T12:06:17.528Z,6.99
2023-06-08T12:08:44.607Z,7.05
2023-06-08T12:11:13.111Z,6.57
2023-06-08T12:13:41.037Z,7.13
2023-06-08T12:16:09.975Z,7.96
2023-06-08T12:18:42.043Z,7.02
2023-06-08T12:21:10.705Z,6.53
2023-06-08T12:23:37.404Z,10.76
2023-06-08T12:26:04.195Z,6.94
2023-06-08T12:28:33.260Z,6.37
2023-06-08T12:31:02.077Z,6.19
2023-06-08T12:33:29.204Z,6.47
2023-06-08T12:35:56.032Z,6.46
2023-06-08T12:38:23.148Z,6.42
2023-06-08T12:40:51.893Z,6.29
2023-06-08T12:43:20.376Z,8.60
2023-06-08T12:45:48.241Z,6.09
2023-06-08T12:48:15.696Z,5.81
2023-06-08T12:50:42.989Z,6.06
2023-06-08T12:53:09.879Z,6.11
2023-06-08T12:55:36.845Z,6.15
2023-06-08T12:58:03.660Z,6.02
2023-06-08T13:00:30.366Z,5.95
2023-06-08T13:02:58.690Z,5.85
2023-06-08T13:05:30.264Z,5.60
2023-06-08T13:08:05.432Z,6.05
2023-06-08T13:10:32.106Z,6.07
2023-06-08T13:13:01.721Z,6.89
2023-06-08T13:15:28.738Z,7.85
2023-06-08T13:17:55.837Z,6.31
2023-06-08T13:20:22.636Z,6.30
2023-06-08T13:22:49.468Z,5.87
2023-06-08T13:25:17.760Z,6.05
2023-06-08T13:27:45.132Z,5.88
2023-06-08T13:30:12.448Z,6.07
2023-06-08T13:32:40.095Z,7.31
2023-06-08T13:35:07.003Z,8.81
2023-06-08T13:37:33.636Z,6.05
2023-06-08T13:40:00.265Z,5.90
2023-06-08T13:42:27.487Z,6.27
2023-06-08T13:44:55.709Z,6.46
2023-06-08T13:47:22.494Z,6.45
2023-06-08T13:49:49.159Z,6.46
2023-06-08T13:52:15.874Z,6.47
2023-06-08T13:54:42.525Z,6.21
2023-06-08T13:57:09.158Z,5.83
2023-06-08T13:59:35.842Z,6.34
2023-06-08T14:02:04.702Z,6.00
2023-06-08T14:04:31.881Z,5.92
2023-06-08T14:06:58.577Z,5.85
2023-06-08T14:09:25.243Z,5.94
2023-06-08T14:11:51.830Z,5.97
2023-06-08T14:14:18.465Z,5.63
2023-06-08T14:16:45.759Z,6.28
2023-06-08T14:19:13.836Z,5.93
2023-06-08T14:21:41.514Z,5.55
2023-06-08T14:24:08.975Z,5.79
2023-06-08T14:26:35.990Z,5.90
2023-06-08T14:29:02.688Z,6.05
2023-06-08T14:31:30.404Z,5.95
2023-06-08T14:33:58.293Z,5.78
2023-06-08T14:36:25.483Z,5.58
2023-06-08T14:38:52.850Z,5.74
2023-06-08T14:41:20.200Z,5.99
2023-06-08T14:43:51.753Z,5.66
2023-06-08T14:46:19.443Z,5.42
2023-06-08T14:48:46.100Z,5.79
2023-06-08T14:51:23.849Z,5.57
2023-06-08T14:53:55.041Z,5.98
2023-06-08T14:56:21.700Z,5.68
2023-06-08T14:58:48.283Z,5.82
2023-06-08T15:01:15.048Z,5.75
2023-06-08T15:03:43.408Z,5.78
2023-06-08T15:06:10.647Z,5.48
2023-06-08T15:08:38.256Z,6.15
2023-06-08T15:11:05.025Z,5.99
2023-06-08T15:13:31.616Z,5.73
2023-06-08T15:15:59.681Z,6.13
2023-06-08T15:18:26.365Z,6.00
2023-06-08T15:20:52.959Z,6.23
2023-06-08T15:23:20.275Z,6.42
2023-06-08T15:25:46.921Z,6.01
2023-06-08T15:28:13.675Z,5.72
2023-06-08T15:30:40.325Z,5.91
2023-06-08T15:33:07.103Z,5.78
2023-06-08T15:35:33.746Z,6.25
2023-06-08T15:38:00.391Z,5.83
2023-06-08T15:40:27.074Z,6.20
2023-06-08T15:42:53.728Z,6.32
2023-06-08T15:45:20.337Z,6.27
2023-06-08T15:47:49.273Z,6.26
2023-06-08T15:50:17.587Z,6.20
2023-06-08T15:52:44.212Z,6.35
2023-06-08T15:55:10.898Z,6.73
2023-06-08T15:57:37.540Z,6.73
2023-06-08T16:00:05.255Z,6.35
2023-06-08T16:02:32.157Z,6.19
2023-06-08T16:04:59.236Z,6.18
2023-06-08T16:07:26.024Z,6.37
2023-06-08T16:09:52.684Z,6.03
2023-06-08T16:12:19.352Z,6.22
2023-06-08T16:14:46.026Z,6.35
2023-06-08T16:17:12.775Z,6.26
2023-06-08T16:19:39.403Z,6.13
2023-06-08T16:22:06.107Z,6.23
2023-06-08T16:24:32.811Z,6.37
2023-06-08T16:26:59.884Z,6.72
2023-06-08T16:29:26.662Z,6.57
2023-06-08T16:31:54.324Z,6.14
2023-06-08T16:34:21.693Z,6.35
2023-06-08T16:36:49.014Z,6.57
2023-06-08T16:39:16.228Z,6.45
2023-06-08T16:41:44.359Z,6.55
2023-06-08T16:44:12.769Z,6.10
2023-06-08T16:46:39.681Z,6.57
2023-06-08T16:49:06.417Z,6.46
2023-06-08T16:51:33.106Z,6.35
2023-06-08T16:53:59.840Z,6.29
2023-06-08T16:56:28.208Z,6.22
2023-06-08T16:58:55.424Z,6.21
2023-06-08T17:01:22.153Z,6.27
2023-06-08T17:03:48.947Z,6.36
2023-06-08T17:06:15.714Z,5.97
2023-06-08T17:08:42.722Z,6.08
2023-06-08T17:11:09.756Z,6.04
2023-06-08T17:13:40.269Z,6.05
2023-06-08T17:16:07.604Z,6.18
2023-06-08T17:18:34.721Z,5.87
2023-06-08T17:21:02.326Z,6.11
2023-06-08T17:23:29.609Z,6.09
2023-06-08T17:25:56.356Z,6.07
2023-06-08T17:28:23.050Z,6.17
2023-06-08T17:30:49.720Z,5.91
2023-06-08T17:33:16.579Z,6.15
2023-06-08T17:35:43.357Z,6.16
2023-06-08T17:38:10.015Z,6.02
2023-06-08T17:40:36.649Z,6.12
2023-06-08T17:43:03.376Z,5.76
2023-06-08T17:45:30.105Z,5.63
2023-06-08T17:47:58.357Z,5.62
2023-06-08T17:50:25.101Z,5.55
2023-06-08T17:53:06.874Z,6.01
2023-06-08T17:55:34.054Z,6.09
2023-06-08T17:58:00.875Z,5.83
2023-06-08T18:00:28.474Z,5.97
2023-06-08T18:02:55.411Z,5.86
2023-06-08T18:05:23.616Z,5.44
2023-06-08T18:07:50.497Z,5.69
2023-06-08T18:10:17.502Z,5.33
2023-06-08T18:12:44.448Z,5.33
2023-06-08T18:15:11.562Z,5.68
2023-06-08T18:17:38.278Z,5.62
2023-06-08T18:20:06.329Z,5.50
2023-06-08T18:22:33.375Z,5.53
2023-06-08T18:25:00.869Z,5.91
2023-06-08T18:27:27.718Z,5.41
2023-06-08T18:29:54.412Z,5.72
2023-06-08T18:32:21.196Z,5.66
2023-06-08T18:34:47.932Z,5.43
2023-06-08T18:37:16.645Z,5.47
2023-06-08T18:39:57.161Z,5.05
2023-06-08T18:42:26.630Z,5.50
2023-06-08T18:44:54.488Z,5.37
2023-06-08T18:47:22.693Z,5.41
2023-06-08T18:49:49.436Z,5.06
2023-06-08T18:52:16.099Z,4.98
2023-06-08T18:54:42.713Z,5.18
2023-06-08T18:57:09.423Z,5.08
2023-06-08T18:59:36.057Z,5.13
2023-06-08T19:02:02.760Z,5.02
2023-06-08T19:04:30.126Z,4.83
2023-06-08T19:06:56.763Z,4.72
2023-06-08T19:09:28.807Z,4.68
2023-06-08T19:11:55.992Z,4.93
2023-06-08T19:14:23.029Z,4.80
2023-06-08T19:16:50.076Z,4.86
2023-06-08T19:19:21.209Z,4.90
2023-06-08T19:21:47.889Z,4.86
2023-06-08T19:24:14.642Z,4.78
2023-06-08T19:26:41.455Z,4.68
2023-06-08T19:29:09.687Z,4.55
2023-06-08T19:31:36.509Z,4.75
2023-06-08T19:34:03.259Z,4.44
2023-06-08T19:36:29.926Z,4.73
2023-06-08T19:38:56.588Z,4.84
2023-06-08T19:41:24.565Z,4.66
2023-06-08T19:43:51.523Z,4.36
2023-06-08T19:46:22.717Z,4.74
2023-06-08T19:48:53.084Z,4.67
2023-06-08T19:51:20.319Z,4.55
2023-06-08T19:53:47.049Z,4.44
2023-06-08T19:56:17.655Z,4.56
2023-06-08T19:58:44.421Z,4.46
2023-06-08T20:01:12.493Z,4.57
2023-06-08T20:03:39.188Z,4.61
2023-06-08T20:06:05.900Z,4.48
2023-06-08T20:08:32.605Z,4.16
2023-06-08T20:10:59.216Z,4.53
2023-06-08T20:13:26.056Z,4.45
2023-06-08T20:15:52.761Z,4.48
2023-06-08T20:18:22.994Z,4.48
2023-06-08T20:20:50.394Z,4.36
2023-06-08T20:23:17.397Z,4.60
2023-06-08T20:25:44.259Z,4.67
2023-06-08T20:28:10.900Z,4.33
2023-06-08T20:30:38.240Z,4.28
2023-06-08T20:33:05.512Z,4.50
2023-06-08T20:35:32.352Z,4.41
2023-06-08T20:37:59.073Z,4.25
2023-06-08T20:40:25.796Z,4.50
2023-06-08T20:42:53.338Z,4.52
2023-06-08T20:45:19.975Z,4.40
2023-06-08T20:47:47.001Z,4.43
2023-06-08T20:50:13.722Z,4.62
2023-06-08T20:52:43.176Z,4.52
2023-06-08T20:55:10.461Z,4.31
2023-06-08T20:57:37.457Z,4.64
2023-06-08T21:00:07.701Z,4.66
2023-06-08T21:02:36.149Z,4.62
2023-06-08T21:05:03.018Z,4.48
2023-06-08T21:07:29.662Z,4.52
2023-06-08T21:09:56.371Z,4.54
2023-06-08T21:12:23.215Z,4.72
2023-06-08T21:14:49.954Z,4.89
2023-06-08T21:17:16.568Z,4.91
2023-06-08T21:19:43.234Z,4.82
2023-06-08T21:22:09.890Z,4.97
2023-06-08T21:24:36.516Z,4.73
2023-06-08T21:27:03.266Z,4.75
2023-06-08T21:29:29.862Z,4.68
2023-06-08T21:31:56.893Z,4.72
2023-06-08T21:34:25.898Z,4.76
2023-06-08T21:36:52.578Z,4.77
2023-06-08T21:39:19.179Z,4.87
2023-06-08T21:41:46.253Z,4.81
2023-06-08T21:44:12.960Z,4.96
2023-06-08T21:46:39.604Z,5.01
2023-06-08T21:49:07.727Z,4.94
2023-06-08T21:51:35.693Z,5.10
2023-06-08T21:54:02.310Z,5.03
2023-06-08T21:56:29.065Z,4.98
2023-06-08T21:58:56.818Z,4.85
2023-06-08T22:01:24.635Z,5.06
2023-06-08T22:03:51.510Z,5.47
2023-06-08T22:06:18.341Z,5.24
2023-06-08T22:08:44.951Z,5.04
2023-06-08T22:11:11.622Z,4.97
2023-06-08T22:13:38.353Z,5.37
2023-06-08T22:16:06.378Z,5.10
2023-06-08T22:18:34.524Z,5.37
2023-06-08T22:21:01.953Z,5.25
2023-06-08T22:23:28.916Z,5.29
2023-06-08T22:25:56.033Z,5.01
2023-06-08T22:28:22.743Z,5.33
2023-06-08T22:30:49.776Z,5.35
2023-06-08T22:33:17.296Z,4.90
2023-06-08T22:35:45.507Z,5.34
2023-06-08T22:38:12.173Z,5.24
2023-06-08T22:40:40.337Z,4.71
2023-06-08T22:43:06.992Z,5.03
2023-06-08T22:45:34.161Z,4.81
2023-06-08T22:48:01.348Z,4.82
2023-06-08T22:50:28.940Z,5.28
2023-06-08T22:52:57.035Z,4.91
2023-06-08T22:55:23.821Z,5.21
2023-06-08T22:57:50.542Z,4.81
2023-06-08T23:00:17.892Z,5.17
2023-06-08T23:02:44.685Z,5.09
2023-06-08T23:05:11.817Z,5.25
2023-06-08T23:07:39.691Z,5.12
2023-06-08T23:10:06.958Z,4.97
2023-06-08T23:12:37.040Z,4.94
2023-06-08T23:15:06.053Z,4.80
2023-06-08T23:17:35.832Z,5.15
2023-06-08T23:20:06.883Z,4.62
2023-06-08T23:22:33.610Z,4.97
2023-06-08T23:25:00.420Z,4.98
2023-06-08T23:27:27.097Z,4.95
2023-06-08T23:29:53.729Z,5.08
2023-06-08T23:32:20.767Z,4.94
2023-06-08T23:34:49.472Z,5.10
2023-06-08T23:37:20.997Z,5.01
2023-06-08T23:39:48.851Z,5.17
2023-06-08T23:42:22.599Z,4.95
2023-06-08T23:44:50.226Z,4.96
2023-06-08T23:47:20.517Z,4.90
2023-06-08T23:49:48.292Z,5.12
2023-06-08T23:52:15.163Z,4.69
2023-06-08T23:54:41.866Z,4.69
2023-06-08T23:57:10.525Z,5.20
2023-06-08T23:59:37.369Z,4.89
